createdAt,value
2018-07-07T00:00:19.359Z,40.60
2018-07-07T00:05:15.440Z,40.60
2018-07-07T00:07:43.527Z,40.60
2018-07-07T00:10:12.579Z,40.60
2018-07-07T00:12:41.258Z,40.70
2018-07-07T00:15:11.918Z,40.60
2018-07-07T00:17:40.840Z,40.80
2018-07-07T00:20:09.011Z,40.80
2018-07-07T00:22:37.111Z,40.70
2018-07-07T00:25:05.270Z,40.70
2018-07-07T00:27:33.378Z,40.60
2018-07-07T00:30:01.592Z,40.50
2018-07-07T00:32:29.799Z,40.50
2018-07-07T00:34:57.946Z,40.70
2018-07-07T00:37:26.060Z,40.80
2018-07-07T00:39:54.167Z,40.80
2018-07-07T00:42:22.336Z,40.80
2018-07-07T00:44:50.468Z,40.60
2018-07-07T00:47:18.727Z,40.60
2018-07-07T00:49:46.838Z,40.70
2018-07-07T00:52:14.940Z,40.60
2018-07-07T00:54:43.085Z,40.60
2018-07-07T00:57:11.206Z,40.60
2018-07-07T00:59:39.297Z,40.50
2018-07-07T01:02:12.738Z,40.50
2018-07-07T01:04:40.844Z,40.50
2018-07-07T01:07:09.035Z,40.40
2018-07-07T01:09:37.128Z,40.20
2018-07-07T01:12:05.267Z,40.20
2018-07-07T01:14:33.375Z,40.20
2018-07-07T01:17:01.518Z,40.60
2018-07-07T01:19:29.634Z,40.90
2018-07-07T01:26:53.808Z,41.30
2018-07-07T01:29:21.899Z,41.40
2018-07-07T01:31:50.032Z,41.50
2018-07-07T01:34:18.128Z,41.50
2018-07-07T01:36:46.638Z,41.40
2018-07-07T01:39:14.903Z,41.60
2018-07-07T01:41:43.040Z,42.20
2018-07-07T01:44:11.131Z,41.40
2018-07-07T01:46:39.349Z,41.40
2018-07-07T01:49:07.487Z,41.20
2018-07-07T01:51:35.637Z,41.30
2018-07-07T01:54:03.771Z,41.70
2018-07-07T01:56:31.907Z,41.50
2018-07-07T01:59:00.027Z,41.40
2018-07-07T02:01:28.159Z,41.50
2018-07-07T02:03:56.239Z,41.60
2018-07-07T02:06:24.375Z,41.50
2018-07-07T02:08:52.482Z,41.50
2018-07-07T02:11:20.632Z,41.60
2018-07-07T02:13:48.757Z,41.50
2018-07-07T02:18:44.781Z,41.60
2018-07-07T02:21:12.878Z,42.30
2018-07-07T02:23:41.027Z,41.70
2018-07-07T02:26:09.140Z,41.70
2018-07-07T02:28:37.265Z,41.70
2018-07-07T02:31:05.414Z,41.70
2018-07-07T02:33:33.499Z,41.60
2018-07-07T02:36:01.648Z,41.60
2018-07-07T02:38:29.767Z,41.80
2018-07-07T02:40:57.895Z,41.80
2018-07-07T02:43:25.999Z,41.80
2018-07-07T02:45:54.116Z,41.70
2018-07-07T02:48:22.247Z,41.90
2018-07-07T02:50:50.473Z,41.90
2018-07-07T02:53:18.558Z,41.80
2018-07-07T02:55:46.659Z,41.80
2018-07-07T02:58:14.799Z,42.00
2018-07-07T03:00:42.906Z,42.00
2018-07-07T03:05:38.951Z,42.00
2018-07-07T03:08:07.043Z,42.10
2018-07-07T03:10:35.186Z,42.10
2018-07-07T03:13:03.276Z,42.20
2018-07-07T03:15:31.383Z,42.10
2018-07-07T03:17:59.484Z,42.90
2018-07-07T03:20:27.591Z,42.20
2018-07-07T03:22:55.782Z,42.20
2018-07-07T03:30:19.685Z,42.40
2018-07-07T03:32:47.809Z,42.40
2018-07-07T03:35:15.908Z,42.40
2018-07-07T03:37:44.020Z,42.40
2018-07-07T03:42:40.008Z,42.50
2018-07-07T03:45:08.105Z,42.50
2018-07-07T03:47:36.243Z,42.60
2018-07-07T03:50:04.349Z,42.60
2018-07-07T03:52:32.502Z,42.60
2018-07-07T03:55:00.631Z,42.60
2018-07-07T03:57:28.737Z,42.60
2018-07-07T03:59:56.827Z,43.20
2018-07-07T04:02:24.957Z,42.60
2018-07-07T04:04:53.058Z,42.60
2018-07-07T04:07:21.247Z,42.60
2018-07-07T04:09:49.274Z,42.60
2018-07-07T04:12:17.387Z,42.60
2018-07-07T04:14:45.493Z,42.70
2018-07-07T04:17:13.624Z,42.70
2018-07-07T04:19:41.720Z,42.70
2018-07-07T04:22:09.835Z,42.80
2018-07-07T04:24:37.927Z,42.80
2018-07-07T04:27:06.024Z,42.80
2018-07-07T04:29:34.129Z,42.70
2018-07-07T04:32:02.223Z,42.90
2018-07-07T04:34:30.371Z,43.00
2018-07-07T04:36:58.470Z,43.50
2018-07-07T04:39:26.587Z,42.90
2018-07-07T04:41:54.698Z,42.80
2018-07-07T04:44:22.792Z,42.80
2018-07-07T04:46:50.916Z,42.80
2018-07-07T04:49:19.029Z,42.70
2018-07-07T04:51:47.133Z,42.70
2018-07-07T04:54:15.257Z,42.70
2018-07-07T04:56:43.351Z,42.80
2018-07-07T04:59:11.479Z,42.80
2018-07-07T05:01:39.566Z,42.80
2018-07-07T05:04:08.480Z,43.00
2018-07-07T05:06:36.575Z,42.80
2018-07-07T05:09:05.223Z,42.90
2018-07-07T05:11:33.305Z,43.00
2018-07-07T05:14:01.400Z,43.20
2018-07-07T05:16:29.506Z,43.20
2018-07-07T05:18:57.603Z,43.20
2018-07-07T05:21:25.712Z,43.00
2018-07-07T05:23:53.819Z,43.10
2018-07-07T05:26:21.917Z,43.10
2018-07-07T05:28:50.031Z,43.20
2018-07-07T05:31:18.111Z,43.30
2018-07-07T05:33:46.227Z,43.40
2018-07-07T05:36:14.334Z,43.30
2018-07-07T05:41:10.303Z,43.50
2018-07-07T05:43:38.399Z,43.60
2018-07-07T05:46:06.524Z,43.60
2018-07-07T05:48:34.662Z,43.50
2018-07-07T05:51:02.768Z,43.60
2018-07-07T05:55:58.784Z,43.50
2018-07-07T05:58:26.891Z,43.70
2018-07-07T06:00:54.992Z,43.70
2018-07-07T06:03:23.106Z,43.70
2018-07-07T06:05:51.232Z,43.80
2018-07-07T06:08:19.355Z,43.70
2018-07-07T06:10:47.495Z,43.50
2018-07-07T06:13:15.588Z,43.50
2018-07-07T06:15:43.720Z,43.30
2018-07-07T06:18:11.826Z,43.60
2018-07-07T06:20:39.967Z,43.60
2018-07-07T06:23:08.098Z,43.50
2018-07-07T06:28:04.098Z,43.40
2018-07-07T06:30:32.236Z,43.60
2018-07-07T06:33:00.384Z,43.40
2018-07-07T06:35:28.652Z,43.40
2018-07-07T06:37:56.907Z,43.30
2018-07-07T06:40:25.019Z,43.40
2018-07-07T06:47:48.975Z,43.10
2018-07-07T06:50:17.102Z,43.00
2018-07-07T06:52:45.207Z,43.10
2018-07-07T06:55:13.312Z,43.00
2018-07-07T06:57:41.399Z,43.10
2018-07-07T07:00:09.510Z,43.00
2018-07-07T07:02:37.608Z,43.10
2018-07-07T07:05:05.706Z,43.10
2018-07-07T07:07:33.840Z,43.00
2018-07-07T07:10:01.932Z,42.80
2018-07-07T07:12:30.047Z,42.90
2018-07-07T07:14:58.150Z,42.80
2018-07-07T07:17:26.232Z,42.80
2018-07-07T07:19:54.399Z,43.40
2018-07-07T07:22:22.491Z,42.60
2018-07-07T07:24:50.602Z,42.60
2018-07-07T07:27:18.776Z,42.60
2018-07-07T07:29:46.912Z,42.70
2018-07-07T07:32:15.044Z,42.80
2018-07-07T07:37:11.170Z,42.80
2018-07-07T07:39:39.278Z,42.60
2018-07-07T07:42:07.405Z,42.50
2018-07-07T07:44:35.548Z,42.40
2018-07-07T07:47:03.671Z,42.30
2018-07-07T07:51:59.678Z,42.20
2018-07-07T07:54:27.812Z,42.20
2018-07-07T07:56:55.927Z,42.20
2018-07-07T07:59:24.015Z,42.20
2018-07-07T08:01:52.146Z,42.20
2018-07-07T08:04:20.275Z,41.60
2018-07-07T08:06:48.381Z,41.90
2018-07-07T08:09:16.498Z,41.50
2018-07-07T08:11:44.619Z,41.30
2018-07-07T08:14:12.757Z,41.40
2018-07-07T08:16:40.857Z,41.40
2018-07-07T08:19:08.992Z,41.40
2018-07-07T08:21:37.160Z,41.40
2018-07-07T08:24:05.243Z,41.30
2018-07-07T08:26:33.359Z,41.30
2018-07-07T08:29:01.478Z,41.10
2018-07-07T08:31:29.582Z,41.10
2018-07-07T08:36:25.587Z,41.00
2018-07-07T08:38:53.679Z,41.10
2018-07-07T08:41:21.791Z,41.00
2018-07-07T08:43:49.920Z,40.70
2018-07-07T08:46:18.076Z,40.60
2018-07-07T08:48:46.243Z,40.50
2018-07-07T08:51:14.390Z,40.50
2018-07-07T08:53:42.489Z,40.50
2018-07-07T08:56:10.642Z,40.40
2018-07-07T08:58:38.748Z,40.30
2018-07-07T09:01:06.890Z,40.40
2018-07-07T09:03:34.993Z,40.40
2018-07-07T09:06:03.104Z,40.30
2018-07-07T09:10:59.099Z,40.30
2018-07-07T09:13:27.201Z,40.40
2018-07-07T09:15:55.331Z,40.10
2018-07-07T09:18:23.493Z,39.80
2018-07-07T09:20:51.603Z,39.70
2018-07-07T09:23:19.712Z,39.60
2018-07-07T09:25:47.815Z,39.60
2018-07-07T09:28:15.933Z,39.60
2018-07-07T09:30:44.102Z,39.60
2018-07-07T09:33:12.212Z,39.60
2018-07-07T09:35:40.352Z,39.60
2018-07-07T09:40:36.443Z,39.60
2018-07-07T09:43:04.547Z,39.30
2018-07-07T09:45:32.661Z,39.40
2018-07-07T09:50:28.670Z,39.50
2018-07-07T09:52:56.779Z,39.50
2018-07-07T09:55:24.883Z,39.40
2018-07-07T09:57:53.043Z,39.20
2018-07-07T10:00:26.611Z,39.10
2018-07-07T10:02:54.739Z,39.00
2018-07-07T10:05:22.831Z,38.90
2018-07-07T10:07:50.973Z,38.70
2018-07-07T10:10:19.076Z,38.80
2018-07-07T10:12:47.205Z,38.90
2018-07-07T10:15:15.322Z,38.80
2018-07-07T10:17:43.455Z,38.40
2018-07-07T10:20:11.574Z,38.10
2018-07-07T10:22:39.707Z,38.10
2018-07-07T10:25:07.902Z,38.40
2018-07-07T10:27:36.025Z,38.40
2018-07-07T10:32:32.123Z,37.80
2018-07-07T10:35:00.217Z,37.30
2018-07-07T10:37:28.343Z,37.20
2018-07-07T10:39:56.448Z,37.10
2018-07-07T10:42:24.552Z,36.90
2018-07-07T10:44:52.715Z,36.60
2018-07-07T10:47:21.094Z,36.50
2018-07-07T10:49:49.220Z,36.40
2018-07-07T10:52:17.365Z,36.40
2018-07-07T10:54:45.568Z,37.40
2018-07-07T10:57:13.703Z,36.90
2018-07-07T10:59:41.770Z,37.00
2018-07-07T11:02:10.041Z,36.90
2018-07-07T11:04:38.155Z,36.40
2018-07-07T11:07:06.330Z,36.00
2018-07-07T11:09:34.431Z,35.80
2018-07-07T11:12:02.522Z,36.10
2018-07-07T11:14:30.628Z,36.40
2018-07-07T11:16:58.729Z,36.40
2018-07-07T11:19:26.827Z,36.30
2018-07-07T11:21:54.903Z,36.10
2018-07-07T11:24:23.029Z,36.00
2018-07-07T11:26:51.279Z,36.10
2018-07-07T11:31:47.255Z,36.30
2018-07-07T11:34:15.351Z,35.70
2018-07-07T11:36:43.592Z,35.40
2018-07-07T11:39:11.596Z,35.40
2018-07-07T11:41:39.688Z,35.90
2018-07-07T11:44:07.797Z,35.60
2018-07-07T11:46:35.899Z,35.40
2018-07-07T11:49:04.023Z,35.50
2018-07-07T11:51:32.116Z,35.30
2018-07-07T11:54:00.207Z,35.40
2018-07-07T11:56:28.383Z,35.40
2018-07-07T11:58:56.471Z,35.00
2018-07-07T12:01:24.567Z,34.80
2018-07-07T12:03:52.862Z,34.50
2018-07-07T12:06:20.945Z,33.90
2018-07-07T12:08:49.052Z,34.00
2018-07-07T12:11:17.148Z,33.90
2018-07-07T12:13:45.223Z,33.70
2018-07-07T12:16:13.395Z,33.50
2018-07-07T12:18:41.471Z,33.40
2018-07-07T12:21:09.549Z,33.30
2018-07-07T12:23:37.628Z,33.10
2018-07-07T12:26:05.831Z,33.00
2018-07-07T12:28:33.932Z,33.00
2018-07-07T12:31:02.018Z,33.10
2018-07-07T12:33:30.120Z,33.10
2018-07-07T12:35:58.394Z,32.90
2018-07-07T12:38:26.479Z,33.80
2018-07-07T12:43:22.479Z,32.90
2018-07-07T12:45:50.580Z,32.80
2018-07-07T12:48:18.660Z,32.70
2018-07-07T12:50:46.814Z,32.50
2018-07-07T12:53:14.901Z,32.90
2018-07-07T12:55:43.001Z,33.30
2018-07-07T12:58:11.108Z,33.60
2018-07-07T13:00:39.203Z,33.80
2018-07-07T13:03:07.298Z,33.60
2018-07-07T13:05:35.411Z,33.40
2018-07-07T13:08:03.507Z,33.60
2018-07-07T13:10:31.603Z,33.60
2018-07-07T13:12:59.680Z,33.40
2018-07-07T13:15:27.824Z,33.50
2018-07-07T13:17:55.991Z,33.70
2018-07-07T13:20:30.910Z,33.90
2018-07-07T13:22:59.007Z,33.70
2018-07-07T13:25:27.156Z,33.70
2018-07-07T13:27:55.400Z,33.80
2018-07-07T13:30:23.521Z,33.50
2018-07-07T13:32:51.651Z,33.90
2018-07-07T13:35:19.766Z,33.20
2018-07-07T13:37:47.922Z,33.10
2018-07-07T13:40:16.037Z,33.10
2018-07-07T13:42:44.147Z,33.00
2018-07-07T13:47:40.162Z,32.90
2018-07-07T13:50:08.299Z,32.90
2018-07-07T13:52:36.381Z,32.90
2018-07-07T13:55:04.534Z,32.90
2018-07-07T13:57:32.880Z,33.00
2018-07-07T14:00:00.984Z,32.90
2018-07-07T14:02:29.073Z,32.90
2018-07-07T14:04:57.185Z,32.90
2018-07-07T14:07:25.295Z,33.00
2018-07-07T14:09:53.407Z,33.00
2018-07-07T14:12:21.502Z,33.10
2018-07-07T14:14:49.641Z,33.30
2018-07-07T14:17:17.867Z,33.40
2018-07-07T14:19:45.878Z,33.30
2018-07-07T14:22:13.994Z,33.30
2018-07-07T14:24:42.124Z,33.30
2018-07-07T14:27:10.230Z,33.30
2018-07-07T14:29:38.367Z,33.40
2018-07-07T14:32:06.560Z,33.40
2018-07-07T14:34:34.651Z,33.50
2018-07-07T14:37:02.768Z,33.50
2018-07-07T14:39:39.067Z,33.60
2018-07-07T14:42:48.223Z,33.80
2018-07-07T14:45:20.217Z,33.80
2018-07-07T14:47:49.338Z,33.80
2018-07-07T14:50:17.691Z,33.80
2018-07-07T14:55:15.111Z,34.10
2018-07-07T14:57:43.926Z,34.00
2018-07-07T15:00:16.287Z,34.10
2018-07-07T15:02:44.820Z,34.20
2018-07-07T15:05:12.946Z,34.20
2018-07-07T15:07:41.040Z,34.20
2018-07-07T15:10:09.874Z,34.30
2018-07-07T15:12:38.048Z,34.30
2018-07-07T15:15:06.151Z,34.40
2018-07-07T15:17:34.292Z,34.40
2018-07-07T15:20:02.722Z,34.50
2018-07-07T15:22:30.908Z,34.70
2018-07-07T15:24:59.028Z,34.70
2018-07-07T15:27:27.155Z,34.80
2018-07-07T15:29:55.317Z,34.80
2018-07-07T15:32:23.447Z,34.80
2018-07-07T15:34:51.967Z,34.90
2018-07-07T15:37:20.085Z,35.00
2018-07-07T15:39:48.234Z,35.10
2018-07-07T15:42:16.346Z,35.10
2018-07-07T15:44:44.455Z,35.20
2018-07-07T15:47:12.606Z,35.20
2018-07-07T15:49:40.738Z,35.30
2018-07-07T15:54:36.804Z,35.40
2018-07-07T15:57:05.100Z,35.40
2018-07-07T15:59:33.236Z,35.40
2018-07-07T16:04:29.252Z,35.50
2018-07-07T16:11:53.260Z,35.60
2018-07-07T16:14:21.416Z,35.70
2018-07-07T16:16:49.572Z,35.80
2018-07-07T16:19:17.730Z,35.80
2018-07-07T16:21:45.893Z,35.80
2018-07-07T16:24:13.992Z,35.90
2018-07-07T16:26:42.134Z,35.90
2018-07-07T16:29:10.259Z,36.00
2018-07-07T16:31:38.394Z,36.00
2018-07-07T16:34:06.518Z,36.00
2018-07-07T16:36:34.637Z,36.00
2018-07-07T16:39:02.826Z,36.10
2018-07-07T16:41:30.941Z,36.10
2018-07-07T16:43:59.482Z,36.10
2018-07-07T16:46:27.616Z,36.10
2018-07-07T16:48:55.735Z,36.10
2018-07-07T16:51:24.139Z,36.10
2018-07-07T16:53:52.382Z,36.20
2018-07-07T16:56:20.897Z,36.20
2018-07-07T16:58:49.199Z,36.20
2018-07-07T17:01:17.563Z,36.30
2018-07-07T17:03:45.836Z,36.30
2018-07-07T17:06:14.011Z,36.30
2018-07-07T17:08:42.631Z,36.40
2018-07-07T17:11:10.967Z,36.40
2018-07-07T17:13:39.339Z,36.40
2018-07-07T17:16:07.475Z,36.40
2018-07-07T17:18:35.579Z,36.40
2018-07-07T17:21:03.675Z,36.50
2018-07-07T17:23:32.155Z,36.60
2018-07-07T17:26:00.257Z,36.60
2018-07-07T17:28:28.351Z,36.70
2018-07-07T17:30:58.555Z,37.30
2018-07-07T17:33:26.684Z,36.70
2018-07-07T17:35:54.810Z,36.70
2018-07-07T17:38:23.079Z,36.70
2018-07-07T17:40:51.932Z,36.70
2018-07-07T17:43:20.212Z,36.70
2018-07-07T17:45:49.400Z,36.70
2018-07-07T17:48:17.540Z,36.80
2018-07-07T17:50:45.659Z,36.80
2018-07-07T17:53:15.048Z,36.80
2018-07-07T17:55:43.263Z,36.90
2018-07-07T17:58:11.383Z,37.00
2018-07-07T18:00:39.483Z,36.80
2018-07-07T18:05:42.163Z,36.80
2018-07-07T18:08:10.455Z,36.80
2018-07-07T18:10:38.831Z,36.70
2018-07-07T18:13:07.212Z,36.70
2018-07-07T18:15:35.331Z,36.70
2018-07-07T18:18:03.443Z,36.60
2018-07-07T18:20:31.636Z,36.60
2018-07-07T18:22:59.790Z,36.70
2018-07-07T18:25:27.883Z,36.60
2018-07-07T18:27:56.067Z,36.90
2018-07-07T18:30:24.343Z,37.00
2018-07-07T18:32:52.486Z,37.40
2018-07-07T18:35:20.587Z,36.80
2018-07-07T18:37:48.878Z,37.00
2018-07-07T18:40:16.871Z,37.00
2018-07-07T18:42:45.043Z,36.90
2018-07-07T18:45:13.176Z,37.00
2018-07-07T18:47:41.310Z,36.90
2018-07-07T18:50:09.427Z,36.90
2018-07-07T18:52:37.565Z,36.90
2018-07-07T18:55:05.659Z,37.00
2018-07-07T18:57:33.791Z,37.10
2018-07-07T19:00:01.912Z,37.10
2018-07-07T19:02:30.016Z,37.00
2018-07-07T19:04:58.148Z,37.00
2018-07-07T19:07:26.603Z,37.20
2018-07-07T19:09:54.703Z,37.00
2018-07-07T19:12:22.814Z,37.20
2018-07-07T19:14:50.963Z,37.20
2018-07-07T19:19:46.939Z,37.20
2018-07-07T19:22:20.606Z,37.30
2018-07-07T19:27:22.315Z,37.40
2018-07-07T19:29:50.451Z,37.40
2018-07-07T19:32:23.767Z,37.50
2018-07-07T19:37:25.407Z,37.60
2018-07-07T19:39:53.504Z,37.50
2018-07-07T19:42:21.612Z,37.50
2018-07-07T19:44:49.737Z,37.60
2018-07-07T19:47:17.852Z,37.60
2018-07-07T19:49:45.971Z,37.60
2018-07-07T19:52:14.093Z,37.60
2018-07-07T19:54:42.204Z,37.60
2018-07-07T19:57:10.284Z,37.60
2018-07-07T19:59:38.411Z,37.80
2018-07-07T20:02:06.595Z,37.70
2018-07-07T20:04:34.678Z,37.80
2018-07-07T20:07:02.784Z,37.90
2018-07-07T20:09:30.900Z,37.90
2018-07-07T20:11:59.007Z,37.90
2018-07-07T20:14:27.431Z,38.00
2018-07-07T20:17:04.815Z,37.90
2018-07-07T20:19:48.662Z,38.00
2018-07-07T20:22:17.069Z,38.10
2018-07-07T20:24:45.183Z,38.50
2018-07-07T20:27:18.682Z,38.00
2018-07-07T20:29:46.863Z,38.20
2018-07-07T20:32:20.426Z,38.20
2018-07-07T20:34:48.559Z,38.10
2018-07-07T20:37:16.653Z,38.20
2018-07-07T20:39:44.747Z,38.10
2018-07-07T20:42:12.831Z,38.10
2018-07-07T20:44:41.044Z,38.20
2018-07-07T20:47:09.200Z,38.10
2018-07-07T20:49:37.316Z,38.10
2018-07-07T20:54:33.330Z,38.90
2018-07-07T20:57:01.455Z,39.00
2018-07-07T20:59:29.644Z,38.80
2018-07-07T21:01:57.754Z,38.80
2018-07-07T21:04:25.864Z,38.70
2018-07-07T21:09:22.067Z,39.00
2018-07-07T21:11:50.197Z,39.10
2018-07-07T21:14:18.299Z,39.20
2018-07-07T21:16:46.416Z,39.20
2018-07-07T21:19:14.528Z,39.00
2018-07-07T21:21:42.635Z,39.20
2018-07-07T21:24:10.781Z,39.10
2018-07-07T21:26:38.904Z,39.10
2018-07-07T21:29:07.048Z,39.20
2018-07-07T21:31:35.403Z,39.30
2018-07-07T21:34:03.526Z,39.10
2018-07-07T21:36:31.700Z,39.30
2018-07-07T21:38:59.805Z,39.50
2018-07-07T21:41:28.084Z,39.20
2018-07-07T21:43:56.221Z,39.40
2018-07-07T21:46:24.356Z,39.00
2018-07-07T21:48:52.439Z,39.20
2018-07-07T21:51:20.668Z,39.20
2018-07-07T21:53:48.850Z,39.20
2018-07-07T21:56:16.888Z,39.30
2018-07-07T22:01:26.591Z,39.50
2018-07-07T22:04:00.040Z,39.40
2018-07-07T22:06:33.671Z,39.40
2018-07-07T22:09:01.800Z,39.40
2018-07-07T22:11:29.924Z,39.40
2018-07-07T22:13:58.012Z,39.60
2018-07-07T22:16:26.127Z,39.60
2018-07-07T22:18:54.267Z,39.70
2018-07-07T22:21:54.796Z,39.50
2018-07-07T22:24:22.969Z,39.80
2018-07-07T22:26:54.418Z,39.70
2018-07-07T22:31:50.403Z,39.40
2018-07-07T22:34:18.573Z,40.00
2018-07-07T22:36:46.775Z,39.90
2018-07-07T22:39:14.914Z,39.80
2018-07-07T22:41:51.215Z,39.60
2018-07-07T22:44:19.505Z,39.80
2018-07-07T22:46:47.615Z,40.00
2018-07-07T22:49:15.823Z,39.80
2018-07-07T22:54:12.420Z,40.00
2018-07-07T22:56:41.371Z,40.00
2018-07-07T22:59:12.028Z,39.90
2018-07-07T23:01:40.156Z,40.10
2018-07-07T23:04:08.284Z,40.10
2018-07-07T23:06:38.181Z,40.10
2018-07-07T23:09:07.480Z,40.30
2018-07-07T23:11:35.620Z,40.40
2018-07-07T23:14:03.912Z,40.50
2018-07-07T23:16:32.499Z,40.40
2018-07-07T23:19:01.584Z,40.50
2018-07-07T23:21:29.771Z,40.40
2018-07-07T23:23:57.961Z,40.50
2018-07-07T23:26:26.393Z,40.50
2018-07-07T23:28:54.491Z,40.40
2018-07-07T23:31:22.616Z,40.40
2018-07-07T23:33:50.723Z,40.40
2018-07-07T23:36:18.884Z,40.60
2018-07-07T23:38:47.004Z,40.60
2018-07-07T23:41:15.116Z,40.60
2018-07-07T23:43:43.287Z,40.50
2018-07-07T23:46:11.432Z,40.60
2018-07-07T23:48:39.887Z,40.60
2018-07-07T23:51:08.443Z,40.50
2018-07-07T23:53:36.616Z,40.30
2018-07-07T23:56:04.822Z,40.50
2018-07-07T23:58:32.932Z,40.60
